createdAt,value
2022-11-25T00:01:29.491Z,100933.13
2022-11-25T00:03:57.669Z,100936.56
2022-11-25T00:06:26.785Z,100928.69
2022-11-25T00:09:01.701Z,100932.31
2022-11-25T00:11:28.746Z,100930.44
2022-11-25T00:13:56.616Z,100937.47
2022-11-25T00:16:24.573Z,100926.94
2022-11-25T00:18:52.971Z,100917.66
2022-11-25T00:21:23.180Z,100926.06
2022-11-25T00:23:58.373Z,100914.50
2022-11-25T00:26:26.525Z,100925.31
2022-11-25T00:28:53.508Z,100926.81
2022-11-25T00:31:22.982Z,100920.16
2022-11-25T00:33:50.402Z,100926.09
2022-11-25T00:36:22.662Z,100934.25
2022-11-25T00:38:56.744Z,100937.53
2022-11-25T00:41:42.718Z,100935.25
2022-11-25T00:44:29.923Z,100934.16
2022-11-25T00:46:56.411Z,100932.91
2022-11-25T00:49:23.003Z,100936.03
2022-11-25T00:51:49.483Z,100935.88
2022-11-25T00:54:16.085Z,100938.56
2022-11-25T00:56:42.584Z,100943.88
2022-11-25T00:59:09.589Z,100940.88
2022-11-25T01:01:36.542Z,100938.00
2022-11-25T01:04:04.071Z,100936.31
2022-11-25T01:06:30.560Z,100941.88
2022-11-25T01:08:57.001Z,100935.00
2022-11-25T01:11:24.294Z,100932.91
2022-11-25T01:13:52.236Z,100929.53
2022-11-25T01:16:21.234Z,100931.59
2022-11-25T01:18:48.633Z,100934.75
2022-11-25T01:21:23.728Z,100934.03
2022-11-25T01:23:51.061Z,100937.41
2022-11-25T01:26:20.139Z,100929.97
2022-11-25T01:28:47.072Z,100932.53
2022-11-25T01:31:15.346Z,100923.84
2022-11-25T01:33:42.144Z,100925.09
2022-11-25T01:36:11.565Z,100919.28
2022-11-25T01:38:38.615Z,100917.06
2022-11-25T01:41:06.649Z,100920.88
2022-11-25T01:43:33.415Z,100924.69
2022-11-25T01:46:05.983Z,100924.69
2022-11-25T01:48:46.815Z,100916.41
2022-11-25T01:51:38.521Z,100920.00
2022-11-25T01:54:08.741Z,100923.75
2022-11-25T01:56:42.088Z,100918.31
2022-11-25T01:59:08.674Z,100913.00
2022-11-25T02:01:35.235Z,100901.69
2022-11-25T02:04:02.309Z,100897.75
2022-11-25T02:07:25.543Z,100891.94
2022-11-25T02:09:52.944Z,100887.06
2022-11-25T02:12:20.593Z,100889.28
2022-11-25T02:14:50.718Z,100895.13
2022-11-25T02:17:17.534Z,100895.84
2022-11-25T02:20:04.556Z,100898.72
2022-11-25T02:22:40.615Z,100898.13
2022-11-25T02:25:32.679Z,100899.41
2022-11-25T02:28:05.987Z,100905.56
2022-11-25T02:30:33.479Z,100903.94
2022-11-25T02:33:00.776Z,100907.84
2022-11-25T02:35:36.740Z,100905.25
2022-11-25T02:38:05.855Z,100908.09
2022-11-25T02:40:34.580Z,100912.03
2022-11-25T02:43:01.101Z,100914.13
2022-11-25T02:45:45.172Z,100918.34
2022-11-25T02:48:11.654Z,100911.28
2022-11-25T02:50:38.104Z,100900.66
2022-11-25T02:53:04.811Z,100899.13
2022-11-25T02:55:31.260Z,100898.13
2022-11-25T02:57:57.714Z,100902.69
2022-11-25T03:00:24.565Z,100911.28
2022-11-25T03:02:53.612Z,100920.81
2022-11-25T03:05:21.783Z,100927.38
2022-11-25T03:07:48.433Z,100921.41
2022-11-25T03:10:14.963Z,100920.97
2022-11-25T03:12:41.379Z,100926.69
2022-11-25T03:15:08.282Z,100930.53
2022-11-25T03:17:34.737Z,100932.34
2022-11-25T03:20:01.146Z,100930.31
2022-11-25T03:22:27.730Z,100930.31
2022-11-25T03:24:54.151Z,100923.19
2022-11-25T03:27:20.758Z,100918.63
2022-11-25T03:29:47.292Z,100925.13
2022-11-25T03:32:13.768Z,100922.16
2022-11-25T03:34:40.550Z,100923.63
2022-11-25T03:37:07.179Z,100915.88
2022-11-25T03:39:33.653Z,100917.59
2022-11-25T03:42:00.086Z,100926.25
2022-11-25T03:44:26.517Z,100924.69
2022-11-25T03:46:53.117Z,100927.88
2022-11-25T03:49:21.691Z,100925.53
2022-11-25T03:51:49.078Z,100925.31
2022-11-25T03:54:15.515Z,100922.44
2022-11-25T03:56:42.110Z,100925.13
2022-11-25T03:59:08.504Z,100919.59
2022-11-25T04:01:35.176Z,100917.69
2022-11-25T04:04:02.526Z,100917.13
2022-11-25T04:06:29.319Z,100915.44
2022-11-25T04:08:55.816Z,100926.28
2022-11-25T04:11:22.235Z,100943.88
2022-11-25T04:13:48.654Z,100942.09
2022-11-25T04:16:26.338Z,100944.63
2022-11-25T04:18:52.841Z,100946.44
2022-11-25T04:21:19.420Z,100940.81
2022-11-25T04:23:45.844Z,100929.22
2022-11-25T04:26:12.353Z,100935.94
2022-11-25T04:28:38.862Z,100937.50
2022-11-25T04:31:09.312Z,100945.47
2022-11-25T04:33:35.765Z,100937.28
2022-11-25T04:36:02.181Z,100927.75
2022-11-25T04:38:29.074Z,100934.34
2022-11-25T04:40:55.509Z,100942.09
2022-11-25T04:43:21.933Z,100936.13
2022-11-25T04:46:13.056Z,100936.38
2022-11-25T04:48:35.259Z,100938.78
2022-11-25T04:51:01.793Z,100939.72
2022-11-25T04:53:28.206Z,100927.03
2022-11-25T04:55:54.635Z,100944.81
2022-11-25T04:58:41.028Z,100938.06
2022-11-25T05:01:07.573Z,100943.13
2022-11-25T05:03:34.022Z,100935.47
2022-11-25T05:06:05.086Z,100941.50
2022-11-25T05:08:32.032Z,100951.59
2022-11-25T05:10:59.337Z,100946.09
2022-11-25T05:13:26.090Z,100949.78
2022-11-25T05:15:52.510Z,100950.13
2022-11-25T05:18:18.970Z,100953.63
2022-11-25T05:20:45.618Z,100951.19
2022-11-25T05:23:12.038Z,100956.34
2022-11-25T05:25:38.557Z,100946.50
2022-11-25T05:28:05.243Z,100954.16
2022-11-25T05:30:31.736Z,100952.25
2022-11-25T05:32:58.240Z,100965.00
2022-11-25T05:35:24.788Z,100956.31
2022-11-25T05:37:51.257Z,100965.19
2022-11-25T05:40:17.826Z,100963.63
2022-11-25T05:42:44.291Z,100971.66
2022-11-25T05:45:11.191Z,100967.50
2022-11-25T05:47:37.674Z,100966.66
2022-11-25T05:50:04.538Z,100970.06
2022-11-25T05:52:30.951Z,100966.34
2022-11-25T05:54:57.694Z,100971.47
2022-11-25T05:57:24.196Z,100967.53
2022-11-25T05:59:50.657Z,100962.97
2022-11-25T06:02:17.140Z,100963.91
2022-11-25T06:04:43.662Z,100960.09
2022-11-25T06:07:10.239Z,100954.50
2022-11-25T06:09:36.716Z,100959.78
2022-11-25T06:12:03.953Z,100959.03
2022-11-25T06:14:32.108Z,100957.03
2022-11-25T06:16:58.598Z,100959.25
2022-11-25T06:19:25.133Z,100959.66
2022-11-25T06:21:51.657Z,100965.19
2022-11-25T06:24:18.275Z,100958.06
2022-11-25T06:26:44.779Z,100966.53
2022-11-25T06:29:11.496Z,100965.16
2022-11-25T06:31:38.027Z,100961.47
2022-11-25T06:34:06.535Z,100957.72
2022-11-25T06:36:33.214Z,100963.22
2022-11-25T06:38:59.648Z,100970.78
2022-11-25T06:41:26.494Z,100960.72
2022-11-25T06:43:53.168Z,100963.53
2022-11-25T06:46:24.974Z,100976.69
2022-11-25T06:48:53.444Z,100978.63
2022-11-25T06:51:20.149Z,100981.69
2022-11-25T06:53:46.680Z,100977.41
2022-11-25T06:56:15.863Z,100986.53
2022-11-25T06:58:43.993Z,100999.28
2022-11-25T07:01:28.636Z,100993.69
2022-11-25T07:03:59.756Z,101004.03
2022-11-25T07:06:27.411Z,101006.31
2022-11-25T07:08:54.361Z,101005.59
2022-11-25T07:11:24.671Z,101012.78
2022-11-25T07:13:56.842Z,101024.59
2022-11-25T07:16:23.442Z,101012.56
2022-11-25T07:18:50.047Z,101024.25
2022-11-25T07:21:19.408Z,101026.91
2022-11-25T07:23:47.155Z,101028.78
2022-11-25T07:26:21.639Z,101038.09
2022-11-25T07:28:49.412Z,101029.59
2022-11-25T07:31:28.694Z,101033.03
2022-11-25T07:34:03.921Z,101028.91
2022-11-25T07:36:31.907Z,101034.00
2022-11-25T07:39:00.471Z,101030.44
2022-11-25T07:41:28.366Z,101036.03
2022-11-25T07:43:59.157Z,101040.63
2022-11-25T07:46:31.330Z,101028.69
2022-11-25T07:49:02.556Z,101028.34
2022-11-25T07:51:32.561Z,101027.47
2022-11-25T07:54:01.270Z,101021.13
2022-11-25T07:56:28.723Z,101028.47
2022-11-25T07:58:56.843Z,101015.75
2022-11-25T08:01:23.572Z,101011.00
2022-11-25T08:03:51.328Z,101016.81
2022-11-25T08:06:25.253Z,101016.75
2022-11-25T08:08:54.671Z,101023.72
2022-11-25T08:11:27.187Z,101034.19
2022-11-25T08:13:54.492Z,101032.38
2022-11-25T08:16:23.902Z,101030.53
2022-11-25T08:18:50.747Z,101048.06
2022-11-25T08:21:18.045Z,101038.53
2022-11-25T08:23:47.961Z,101036.38
2022-11-25T08:26:18.104Z,101036.03
2022-11-25T08:28:45.465Z,101044.41
2022-11-25T08:31:19.229Z,101047.56
2022-11-25T08:33:46.887Z,101041.13
2022-11-25T08:36:14.211Z,101045.69
2022-11-25T08:38:42.504Z,101049.19
2022-11-25T08:41:11.974Z,101043.19
2022-11-25T08:43:39.567Z,101050.84
2022-11-25T08:46:11.612Z,101043.91
2022-11-25T08:48:38.993Z,101047.50
2022-11-25T08:51:20.746Z,101048.34
2022-11-25T08:53:47.610Z,101047.22
2022-11-25T08:56:15.138Z,101037.53
2022-11-25T08:58:42.194Z,101044.84
2022-11-25T09:01:10.815Z,101041.66
2022-11-25T09:03:43.577Z,101038.53
2022-11-25T09:06:11.174Z,101041.34
2022-11-25T09:08:40.073Z,101047.50
2022-11-25T09:11:07.866Z,101047.28
2022-11-25T09:13:38.026Z,101044.94
2022-11-25T09:16:05.632Z,101048.63
2022-11-25T09:18:32.688Z,101048.09
2022-11-25T09:20:59.788Z,101061.19
2022-11-25T09:23:27.193Z,101054.22
2022-11-25T09:25:58.037Z,101054.59
2022-11-25T09:28:26.813Z,101053.13
2022-11-25T09:30:53.558Z,101055.53
2022-11-25T09:33:20.429Z,101053.09
2022-11-25T09:35:47.491Z,101049.19
2022-11-25T09:38:14.299Z,101057.56
2022-11-25T09:40:51.152Z,101050.81
2022-11-25T09:44:12.047Z,101054.59
2022-11-25T09:47:00.390Z,101045.34
2022-11-25T09:49:30.815Z,101044.22
2022-11-25T09:52:37.148Z,101028.22
2022-11-25T09:55:26.585Z,101030.28
2022-11-25T09:58:00.027Z,101037.03
2022-11-25T10:00:37.633Z,101029.28
2022-11-25T10:03:15.335Z,101024.84
2022-11-25T10:05:52.851Z,101021.34
2022-11-25T10:08:25.257Z,101023.00
2022-11-25T10:11:22.862Z,101030.13
2022-11-25T10:14:46.273Z,101031.72
2022-11-25T10:17:25.429Z,101025.97
2022-11-25T10:20:04.900Z,101024.09
2022-11-25T10:22:34.894Z,101024.22
2022-11-25T10:25:23.782Z,101023.94
2022-11-25T10:27:55.790Z,101027.69
2022-11-25T10:30:33.091Z,101028.09
2022-11-25T10:33:22.656Z,101029.16
2022-11-25T10:36:22.120Z,101032.06
2022-11-25T10:39:13.624Z,101034.66
2022-11-25T10:41:55.173Z,101040.88
2022-11-25T10:44:37.707Z,101041.63
2022-11-25T10:47:43.301Z,101043.72
2022-11-25T10:50:59.115Z,101044.84
2022-11-25T10:53:30.807Z,101044.28
2022-11-25T10:56:01.496Z,101045.00
2022-11-25T10:58:49.540Z,101037.69
2022-11-25T11:01:25.856Z,101039.94
2022-11-25T11:04:19.071Z,101032.88
2022-11-25T11:06:48.413Z,101041.47
2022-11-25T11:09:34.500Z,101039.22
2022-11-25T11:12:15.512Z,101045.53
2022-11-25T11:14:42.069Z,101035.53
2022-11-25T11:17:35.999Z,101038.66
2022-11-25T11:20:09.629Z,101041.28
2022-11-25T11:22:47.443Z,101030.09
2022-11-25T11:25:27.775Z,101031.75
2022-11-25T11:27:55.001Z,101027.81
2022-11-25T11:30:26.640Z,101029.75
2022-11-25T11:32:56.188Z,101028.09
2022-11-25T11:35:50.925Z,101028.56
2022-11-25T11:38:40.690Z,101030.66
2022-11-25T11:41:53.854Z,101018.81
2022-11-25T11:44:54.746Z,101017.88
2022-11-25T11:47:43.811Z,101022.44
2022-11-25T11:50:25.032Z,101024.69
2022-11-25T11:53:47.218Z,101024.34
2022-11-25T12:00:09.595Z,101019.47
2022-11-25T12:02:59.207Z,101011.13
2022-11-25T12:05:37.296Z,101011.75
2022-11-25T12:08:13.672Z,101007.59
2022-11-25T12:10:45.274Z,101002.81
2022-11-25T12:13:32.933Z,100997.81
2022-11-25T12:16:16.301Z,100997.84
2022-11-25T12:19:04.165Z,100996.00
2022-11-25T12:21:36.310Z,100995.16
2022-11-25T12:24:17.334Z,101000.63
2022-11-25T12:27:03.745Z,100996.84
2022-11-25T12:30:19.118Z,100994.91
2022-11-25T12:33:34.893Z,100993.31
2022-11-25T12:36:56.843Z,100999.78
2022-11-25T12:39:45.725Z,101006.16
2022-11-25T12:42:32.840Z,100996.69
2022-11-25T12:45:18.404Z,101003.94
2022-11-25T12:47:45.448Z,101010.56
2022-11-25T12:50:18.948Z,101008.28
2022-11-25T12:53:00.535Z,101007.19
2022-11-25T12:55:30.834Z,101008.34
2022-11-25T13:07:54.286Z,101011.34
2022-11-25T13:19:23.340Z,101015.25
2022-11-25T13:30:37.730Z,101034.25
2022-11-25T13:36:23.100Z,101039.44
2022-11-25T13:38:56.696Z,101031.94
2022-11-25T13:41:47.483Z,101051.06
2022-11-25T13:44:49.025Z,101045.72
2022-11-25T13:47:40.771Z,101049.63
2022-11-25T13:51:10.774Z,101052.06
2022-11-25T13:53:53.036Z,101049.03
2022-11-25T13:56:32.525Z,101048.19
2022-11-25T13:59:44.323Z,101044.28
2022-11-25T14:02:58.743Z,101040.41
2022-11-25T14:08:37.851Z,101051.03
2022-11-25T14:14:01.211Z,101058.16
2022-11-25T14:43:02.365Z,101087.69
2022-11-25T16:12:25.751Z,101130.84
2022-11-25T16:20:25.379Z,101127.75
2022-11-25T16:37:24.531Z,101142.34
2022-11-25T16:39:57.728Z,101139.72
2022-11-25T16:42:34.158Z,101143.31
2022-11-25T16:47:55.534Z,101150.56
2022-11-25T16:58:44.204Z,101145.78
2022-11-25T17:07:30.671Z,101153.16
2022-11-25T17:18:06.896Z,101159.47
2022-11-25T17:32:13.527Z,101171.34
2022-11-25T17:37:24.047Z,101175.06
2022-11-25T17:39:54.434Z,101181.84
2022-11-25T17:42:28.612Z,101179.53
2022-11-25T17:44:55.844Z,101179.59
2022-11-25T17:47:22.560Z,101183.69
2022-11-25T17:49:49.691Z,101186.88
2022-11-25T17:52:16.968Z,101186.97
2022-11-25T17:54:43.666Z,101197.25
2022-11-25T17:57:18.960Z,101198.53
2022-11-25T17:59:45.624Z,101197.78
2022-11-25T18:02:21.500Z,101198.34
2022-11-25T18:04:50.546Z,101202.06
2022-11-25T18:07:17.858Z,101200.03
2022-11-25T18:09:45.664Z,101204.50
2022-11-25T18:12:30.942Z,101207.38
2022-11-25T18:14:57.877Z,101212.78
2022-11-25T18:17:24.849Z,101210.75
2022-11-25T18:19:54.866Z,101212.69
2022-11-25T18:22:24.595Z,101213.47
2022-11-25T18:24:52.480Z,101215.97
2022-11-25T18:27:29.908Z,101211.09
2022-11-25T18:29:57.382Z,101215.22
2022-11-25T18:32:25.745Z,101223.41
2022-11-25T18:34:52.652Z,101225.00
2022-11-25T20:42:22.368Z,101371.66
2022-11-25T20:44:54.695Z,101372.09
2022-11-25T20:47:26.082Z,101372.50
2022-11-25T21:35:40.760Z,101406.72
2022-11-25T21:38:14.964Z,101408.75
2022-11-25T21:43:28.816Z,101413.16
2022-11-25T21:51:27.505Z,101417.31
2022-11-25T21:53:54.555Z,101421.38
2022-11-25T22:04:55.452Z,101432.06
2022-11-25T22:10:12.054Z,101433.38
2022-11-25T22:12:41.684Z,101444.31
2022-11-25T22:15:20.852Z,101439.47
2022-11-25T22:20:34.325Z,101446.75
2022-11-25T22:23:01.730Z,101453.81
2022-11-25T22:25:31.191Z,101452.31
2022-11-25T22:27:57.705Z,101453.66
2022-11-25T22:33:03.109Z,101466.44
2022-11-25T22:35:29.759Z,101466.03
2022-11-25T22:37:56.258Z,101473.28
2022-11-25T22:40:23.966Z,101472.22
2022-11-25T22:42:52.049Z,101475.16
2022-11-25T22:45:32.966Z,101478.06
2022-11-25T22:48:04.649Z,101483.72
2022-11-25T22:50:32.119Z,101490.00
2022-11-25T22:53:00.250Z,101491.59
2022-11-25T22:55:29.851Z,101492.00
2022-11-25T22:57:58.703Z,101492.03
2022-11-25T23:00:28.247Z,101489.88
2022-11-25T23:02:56.788Z,101495.88
2022-11-25T23:05:34.745Z,101491.09
2022-11-25T23:08:09.158Z,101508.63
2022-11-25T23:10:35.645Z,101510.19
2022-11-25T23:13:02.069Z,101506.38
2022-11-25T23:15:29.454Z,101505.47
2022-11-25T23:17:58.379Z,101510.00
2022-11-25T23:20:30.485Z,101509.19
2022-11-25T23:22:57.866Z,101512.06
2022-11-25T23:25:24.901Z,101517.88
2022-11-25T23:27:51.352Z,101521.38
2022-11-25T23:30:22.899Z,101522.75
2022-11-25T23:32:51.478Z,101530.00
2022-11-25T23:35:21.645Z,101526.56
2022-11-25T23:37:55.021Z,101529.94
2022-11-25T23:40:24.018Z,101529.25
2022-11-25T23:42:52.490Z,101532.00
2022-11-25T23:45:21.343Z,101525.84
2022-11-25T23:47:49.797Z,101528.44
2022-11-25T23:50:32.407Z,101534.41
2022-11-25T23:53:07.657Z,101529.53
2022-11-25T23:55:37.186Z,101532.41
